sensor_id;sensor_type;location;lat;lon;timestamp;P1;durP1;ratioP1;P2;durP2;ratioP2
19599;SDS011;9947;57.722;12.012;2023-08-01T00:02:38;25.35;;;7.88;;
19599;SDS011;9947;57.722;12.012;2023-08-01T00:05:16;32.90;;;7.97;;
19599;SDS011;9947;57.722;12.012;2023-08-01T00:07:46;29.13;;;7.57;;
19599;SDS011;9947;57.722;12.012;2023-08-01T00:10:14;20.23;;;8.03;;
19599;SDS011;9947;57.722;12.012;2023-08-01T00:12:42;14.40;;;7.00;;
19599;SDS011;9947;57.722;12.012;2023-08-01T00:15:10;17.97;;;7.67;;
19599;SDS011;9947;57.722;12.012;2023-08-01T00:17:41;51.30;;;9.00;;
19599;SDS011;9947;57.722;12.012;2023-08-01T00:20:24;26.83;;;7.60;;
19599;SDS011;9947;57.722;12.012;2023-08-01T00:22:52;12.93;;;7.27;;
19599;SDS011;9947;57.722;12.012;2023-08-01T00:25:23;19.07;;;7.67;;
19599;SDS011;9947;57.722;12.012;2023-08-01T00:27:50;29.73;;;7.60;;
19599;SDS011;9947;57.722;12.012;2023-08-01T00:30:24;15.27;;;7.20;;
19599;SDS011;9947;57.722;12.012;2023-08-01T00:32:52;17.10;;;7.60;;
19599;SDS011;9947;57.722;12.012;2023-08-01T00:35:19;17.67;;;7.13;;
19599;SDS011;9947;57.722;12.012;2023-08-01T00:37:46;22.73;;;7.43;;
19599;SDS011;9947;57.722;12.012;2023-08-01T00:40:13;41.67;;;8.30;;
19599;SDS011;9947;57.722;12.012;2023-08-01T00:42:43;34.07;;;8.43;;
19599;SDS011;9947;57.722;12.012;2023-08-01T00:45:14;15.93;;;7.83;;
19599;SDS011;9947;57.722;12.012;2023-08-01T00:47:41;48.73;;;10.03;;
19599;SDS011;9947;57.722;12.012;2023-08-01T00:50:09;35.47;;;8.10;;
19599;SDS011;9947;57.722;12.012;2023-08-01T00:52:40;27.60;;;8.30;;
19599;SDS011;9947;57.722;12.012;2023-08-01T00:55:08;44.80;;;8.13;;
19599;SDS011;9947;57.722;12.012;2023-08-01T00:57:36;19.27;;;7.00;;
19599;SDS011;9947;57.722;12.012;2023-08-01T01:00:06;27.50;;;7.40;;
19599;SDS011;9947;57.722;12.012;2023-08-01T01:02:35;27.73;;;7.53;;
19599;SDS011;9947;57.722;12.012;2023-08-01T01:05:05;80.57;;;10.03;;
19599;SDS011;9947;57.722;12.012;2023-08-01T01:07:33;25.10;;;6.97;;
19599;SDS011;9947;57.722;12.012;2023-08-01T01:10:01;264.97;;;19.37;;
19599;SDS011;9947;57.722;12.012;2023-08-01T01:12:34;23.73;;;7.53;;
19599;SDS011;9947;57.722;12.012;2023-08-01T01:15:03;16.20;;;6.40;;
19599;SDS011;9947;57.722;12.012;2023-08-01T01:17:32;47.17;;;7.90;;
19599;SDS011;9947;57.722;12.012;2023-08-01T01:19:59;20.97;;;7.40;;
19599;SDS011;9947;57.722;12.012;2023-08-01T01:22:27;19.93;;;7.53;;
19599;SDS011;9947;57.722;12.012;2023-08-01T01:24:58;35.80;;;7.17;;
19599;SDS011;9947;57.722;12.012;2023-08-01T01:27:28;84.03;;;10.13;;
19599;SDS011;9947;57.722;12.012;2023-08-01T01:30:01;45.37;;;7.37;;
19599;SDS011;9947;57.722;12.012;2023-08-01T01:32:30;28.43;;;7.57;;
19599;SDS011;9947;57.722;12.012;2023-08-01T01:34:57;34.10;;;8.63;;
19599;SDS011;9947;57.722;12.012;2023-08-01T01:37:25;76.17;;;8.87;;
19599;SDS011;9947;57.722;12.012;2023-08-01T01:39:53;56.73;;;8.67;;
19599;SDS011;9947;57.722;12.012;2023-08-01T01:42:20;25.07;;;7.83;;
19599;SDS011;9947;57.722;12.012;2023-08-01T01:44:53;39.93;;;8.37;;
19599;SDS011;9947;57.722;12.012;2023-08-01T01:47:20;81.40;;;11.77;;
19599;SDS011;9947;57.722;12.012;2023-08-01T01:49:51;60.67;;;10.17;;
19599;SDS011;9947;57.722;12.012;2023-08-01T01:52:19;116.67;;;11.87;;
19599;SDS011;9947;57.722;12.012;2023-08-01T01:54:46;118.87;;;11.47;;
19599;SDS011;9947;57.722;12.012;2023-08-01T01:57:14;191.00;;;14.23;;
19599;SDS011;9947;57.722;12.012;2023-08-01T01:59:42;218.20;;;17.10;;
19599;SDS011;9947;57.722;12.012;2023-08-01T02:02:09;186.83;;;13.53;;
19599;SDS011;9947;57.722;12.012;2023-08-01T02:04:37;70.43;;;9.87;;
19599;SDS011;9947;57.722;12.012;2023-08-01T02:07:04;70.83;;;11.10;;
19599;SDS011;9947;57.722;12.012;2023-08-01T02:09:33;119.47;;;11.77;;
19599;SDS011;9947;57.722;12.012;2023-08-01T02:12:01;50.37;;;8.93;;
19599;SDS011;9947;57.722;12.012;2023-08-01T02:14:34;74.17;;;9.33;;
19599;SDS011;9947;57.722;12.012;2023-08-01T02:17:02;168.43;;;13.27;;
19599;SDS011;9947;57.722;12.012;2023-08-01T02:19:30;21.40;;;7.40;;
19599;SDS011;9947;57.722;12.012;2023-08-01T02:22:00;47.27;;;9.10;;
19599;SDS011;9947;57.722;12.012;2023-08-01T02:24:27;56.20;;;9.03;;
19599;SDS011;9947;57.722;12.012;2023-08-01T02:26:58;17.80;;;7.67;;
19599;SDS011;9947;57.722;12.012;2023-08-01T02:29:25;13.97;;;6.47;;
19599;SDS011;9947;57.722;12.012;2023-08-01T02:31:58;12.97;;;6.30;;
19599;SDS011;9947;57.722;12.012;2023-08-01T02:34:25;16.17;;;6.17;;
19599;SDS011;9947;57.722;12.012;2023-08-01T02:36:52;13.23;;;6.53;;
19599;SDS011;9947;57.722;12.012;2023-08-01T02:39:26;44.03;;;8.00;;
19599;SDS011;9947;57.722;12.012;2023-08-01T02:42:02;31.33;;;6.60;;
19599;SDS011;9947;57.722;12.012;2023-08-01T02:44:39;189.53;;;14.50;;
19599;SDS011;9947;57.722;12.012;2023-08-01T02:47:12;38.40;;;6.83;;
19599;SDS011;9947;57.722;12.012;2023-08-01T02:49:39;36.70;;;7.00;;
19599;SDS011;9947;57.722;12.012;2023-08-01T02:52:07;28.17;;;6.43;;
19599;SDS011;9947;57.722;12.012;2023-08-01T02:54:36;29.60;;;7.07;;
19599;SDS011;9947;57.722;12.012;2023-08-01T02:57:13;32.83;;;6.83;;
19599;SDS011;9947;57.722;12.012;2023-08-01T02:59:41;25.33;;;6.97;;
19599;SDS011;9947;57.722;12.012;2023-08-01T03:02:11;53.93;;;7.40;;
19599;SDS011;9947;57.722;12.012;2023-08-01T03:04:38;38.40;;;7.47;;
19599;SDS011;9947;57.722;12.012;2023-08-01T03:07:06;33.67;;;7.33;;
19599;SDS011;9947;57.722;12.012;2023-08-01T03:09:33;76.63;;;8.93;;
19599;SDS011;9947;57.722;12.012;2023-08-01T03:14:26;43.67;;;8.00;;
19599;SDS011;9947;57.722;12.012;2023-08-01T03:16:53;38.40;;;8.70;;
19599;SDS011;9947;57.722;12.012;2023-08-01T03:19:21;91.00;;;10.23;;
19599;SDS011;9947;57.722;12.012;2023-08-01T03:21:49;37.93;;;8.57;;
19599;SDS011;9947;57.722;12.012;2023-08-01T03:24:16;45.07;;;9.03;;
19599;SDS011;9947;57.722;12.012;2023-08-01T03:26:43;35.17;;;8.50;;
19599;SDS011;9947;57.722;12.012;2023-08-01T03:29:10;36.87;;;10.83;;
19599;SDS011;9947;57.722;12.012;2023-08-01T03:31:37;31.60;;;9.03;;
19599;SDS011;9947;57.722;12.012;2023-08-01T03:34:07;24.93;;;8.10;;
19599;SDS011;9947;57.722;12.012;2023-08-01T03:36:39;32.47;;;8.40;;
19599;SDS011;9947;57.722;12.012;2023-08-01T03:39:06;28.90;;;8.33;;
19599;SDS011;9947;57.722;12.012;2023-08-01T03:41:35;31.63;;;9.27;;
19599;SDS011;9947;57.722;12.012;2023-08-01T03:46:28;38.65;;;10.13;;
19599;SDS011;9947;57.722;12.012;2023-08-01T03:48:55;33.60;;;9.63;;
19599;SDS011;9947;57.722;12.012;2023-08-01T03:51:22;37.53;;;10.13;;
19599;SDS011;9947;57.722;12.012;2023-08-01T03:53:51;32.50;;;9.83;;
19599;SDS011;9947;57.722;12.012;2023-08-01T03:56:20;26.07;;;10.50;;
19599;SDS011;9947;57.722;12.012;2023-08-01T03:58:47;33.77;;;10.60;;
19599;SDS011;9947;57.722;12.012;2023-08-01T04:01:14;30.80;;;10.47;;
19599;SDS011;9947;57.722;12.012;2023-08-01T04:03:40;37.80;;;11.63;;
19599;SDS011;9947;57.722;12.012;2023-08-01T04:06:07;25.07;;;10.80;;
19599;SDS011;9947;57.722;12.012;2023-08-01T04:08:37;30.07;;;12.67;;
19599;SDS011;9947;57.722;12.012;2023-08-01T04:13:35;25.37;;;12.13;;
19599;SDS011;9947;57.722;12.012;2023-08-01T04:18:33;23.60;;;11.10;;
19599;SDS011;9947;57.722;12.012;2023-08-01T04:23:30;21.23;;;12.07;;
19599;SDS011;9947;57.722;12.012;2023-08-01T04:28:23;21.77;;;11.10;;
19599;SDS011;9947;57.722;12.012;2023-08-01T04:30:51;21.70;;;11.60;;
19599;SDS011;9947;57.722;12.012;2023-08-01T04:33:19;20.63;;;10.00;;
19599;SDS011;9947;57.722;12.012;2023-08-01T04:35:46;31.37;;;11.93;;
19599;SDS011;9947;57.722;12.012;2023-08-01T04:38:15;23.97;;;12.37;;
19599;SDS011;9947;57.722;12.012;2023-08-01T04:40:42;23.33;;;11.77;;
19599;SDS011;9947;57.722;12.012;2023-08-01T04:45:39;26.10;;;12.77;;
19599;SDS011;9947;57.722;12.012;2023-08-01T04:50:32;22.45;;;11.10;;
19599;SDS011;9947;57.722;12.012;2023-08-01T04:53:04;21.43;;;11.23;;
19599;SDS011;9947;57.722;12.012;2023-08-01T04:55:33;24.97;;;11.63;;
19599;SDS011;9947;57.722;12.012;2023-08-01T05:00:25;15.93;;;9.60;;
19599;SDS011;9947;57.722;12.012;2023-08-01T05:02:55;19.57;;;10.07;;
19599;SDS011;9947;57.722;12.012;2023-08-01T05:05:22;18.70;;;10.37;;
19599;SDS011;9947;57.722;12.012;2023-08-01T05:07:51;16.10;;;9.50;;
19599;SDS011;9947;57.722;12.012;2023-08-01T05:10:20;18.23;;;10.33;;
19599;SDS011;9947;57.722;12.012;2023-08-01T05:12:48;15.47;;;9.57;;
19599;SDS011;9947;57.722;12.012;2023-08-01T05:15:15;12.00;;;9.23;;
19599;SDS011;9947;57.722;12.012;2023-08-01T05:17:43;14.43;;;9.07;;
19599;SDS011;9947;57.722;12.012;2023-08-01T05:20:12;13.80;;;8.30;;
19599;SDS011;9947;57.722;12.012;2023-08-01T05:22:39;14.40;;;9.00;;
19599;SDS011;9947;57.722;12.012;2023-08-01T05:25:07;14.00;;;9.23;;
19599;SDS011;9947;57.722;12.012;2023-08-01T05:27:35;13.73;;;8.13;;
19599;SDS011;9947;57.722;12.012;2023-08-01T05:32:28;14.57;;;8.20;;
19599;SDS011;9947;57.722;12.012;2023-08-01T05:34:56;10.90;;;7.03;;
19599;SDS011;9947;57.722;12.012;2023-08-01T05:37:23;9.30;;;6.70;;
19599;SDS011;9947;57.722;12.012;2023-08-01T05:39:50;7.57;;;6.10;;
19599;SDS011;9947;57.722;12.012;2023-08-01T05:42:19;7.33;;;6.10;;
19599;SDS011;9947;57.722;12.012;2023-08-01T05:44:46;6.73;;;5.27;;
19599;SDS011;9947;57.722;12.012;2023-08-01T05:47:14;6.50;;;5.03;;
19599;SDS011;9947;57.722;12.012;2023-08-01T05:49:42;8.00;;;5.83;;
19599;SDS011;9947;57.722;12.012;2023-08-01T05:52:09;8.23;;;5.63;;
19599;SDS011;9947;57.722;12.012;2023-08-01T05:54:39;8.47;;;5.53;;
19599;SDS011;9947;57.722;12.012;2023-08-01T05:57:06;11.03;;;5.77;;
19599;SDS011;9947;57.722;12.012;2023-08-01T05:59:36;8.60;;;5.47;;
19599;SDS011;9947;57.722;12.012;2023-08-01T06:02:03;7.83;;;5.33;;
19599;SDS011;9947;57.722;12.012;2023-08-01T06:04:30;5.43;;;4.37;;
19599;SDS011;9947;57.722;12.012;2023-08-01T06:07:01;7.07;;;4.77;;
19599;SDS011;9947;57.722;12.012;2023-08-01T06:09:28;6.83;;;4.60;;
19599;SDS011;9947;57.722;12.012;2023-08-01T06:11:56;6.73;;;4.37;;
19599;SDS011;9947;57.722;12.012;2023-08-01T06:14:24;5.67;;;4.40;;
19599;SDS011;9947;57.722;12.012;2023-08-01T06:16:52;6.13;;;4.00;;
19599;SDS011;9947;57.722;12.012;2023-08-01T06:19:19;6.47;;;4.10;;
19599;SDS011;9947;57.722;12.012;2023-08-01T06:21:47;6.23;;;4.33;;
19599;SDS011;9947;57.722;12.012;2023-08-01T06:24:15;6.90;;;4.30;;
19599;SDS011;9947;57.722;12.012;2023-08-01T06:26:43;8.30;;;4.90;;
19599;SDS011;9947;57.722;12.012;2023-08-01T06:29:12;6.03;;;4.73;;
19599;SDS011;9947;57.722;12.012;2023-08-01T06:31:42;5.83;;;4.80;;
19599;SDS011;9947;57.722;12.012;2023-08-01T06:34:13;7.60;;;5.03;;
19599;SDS011;9947;57.722;12.012;2023-08-01T06:36:43;6.60;;;5.07;;
19599;SDS011;9947;57.722;12.012;2023-08-01T06:39:10;6.23;;;4.93;;
19599;SDS011;9947;57.722;12.012;2023-08-01T06:41:37;6.37;;;4.87;;
19599;SDS011;9947;57.722;12.012;2023-08-01T06:44:04;7.17;;;5.00;;
19599;SDS011;9947;57.722;12.012;2023-08-01T06:46:33;8.10;;;5.67;;
19599;SDS011;9947;57.722;12.012;2023-08-01T06:49:06;6.77;;;5.57;;
19599;SDS011;9947;57.722;12.012;2023-08-01T06:51:35;7.93;;;5.70;;
19599;SDS011;9947;57.722;12.012;2023-08-01T06:54:03;9.20;;;5.47;;
19599;SDS011;9947;57.722;12.012;2023-08-01T06:56:31;8.03;;;5.80;;
19599;SDS011;9947;57.722;12.012;2023-08-01T07:01:23;7.47;;;5.57;;
19599;SDS011;9947;57.722;12.012;2023-08-01T07:03:50;8.50;;;6.10;;
19599;SDS011;9947;57.722;12.012;2023-08-01T07:06:17;7.87;;;6.03;;
19599;SDS011;9947;57.722;12.012;2023-08-01T07:08:46;7.27;;;5.73;;
19599;SDS011;9947;57.722;12.012;2023-08-01T07:11:13;6.83;;;5.97;;
19599;SDS011;9947;57.722;12.012;2023-08-01T07:13:41;8.23;;;5.67;;
19599;SDS011;9947;57.722;12.012;2023-08-01T07:16:09;8.07;;;5.63;;
19599;SDS011;9947;57.722;12.012;2023-08-01T07:18:36;7.77;;;5.60;;
19599;SDS011;9947;57.722;12.012;2023-08-01T07:21:04;7.37;;;6.03;;
19599;SDS011;9947;57.722;12.012;2023-08-01T07:23:34;8.03;;;5.37;;
19599;SDS011;9947;57.722;12.012;2023-08-01T07:28:29;7.55;;;5.15;;
19599;SDS011;9947;57.722;12.012;2023-08-01T07:31:00;7.30;;;5.20;;
19599;SDS011;9947;57.722;12.012;2023-08-01T07:33:27;11.30;;;5.60;;
19599;SDS011;9947;57.722;12.012;2023-08-01T07:35:55;7.53;;;4.97;;
19599;SDS011;9947;57.722;12.012;2023-08-01T07:38:22;5.10;;;4.50;;
19599;SDS011;9947;57.722;12.012;2023-08-01T07:40:49;6.93;;;4.40;;
19599;SDS011;9947;57.722;12.012;2023-08-01T07:43:18;6.50;;;4.73;;
19599;SDS011;9947;57.722;12.012;2023-08-01T07:45:50;7.63;;;5.00;;
19599;SDS011;9947;57.722;12.012;2023-08-01T07:48:23;8.67;;;4.40;;
19599;SDS011;9947;57.722;12.012;2023-08-01T07:50:51;4.63;;;4.17;;
19599;SDS011;9947;57.722;12.012;2023-08-01T07:53:18;6.33;;;4.30;;
19599;SDS011;9947;57.722;12.012;2023-08-01T07:55:46;4.50;;;3.80;;
19599;SDS011;9947;57.722;12.012;2023-08-01T07:58:13;6.83;;;4.17;;
19599;SDS011;9947;57.722;12.012;2023-08-01T08:00:40;6.53;;;4.40;;
19599;SDS011;9947;57.722;12.012;2023-08-01T08:03:08;8.80;;;4.23;;
19599;SDS011;9947;57.722;12.012;2023-08-01T08:05:35;5.97;;;3.77;;
19599;SDS011;9947;57.722;12.012;2023-08-01T08:08:04;7.97;;;4.00;;
19599;SDS011;9947;57.722;12.012;2023-08-01T08:10:33;5.53;;;3.60;;
19599;SDS011;9947;57.722;12.012;2023-08-01T08:15:25;5.20;;;3.40;;
19599;SDS011;9947;57.722;12.012;2023-08-01T08:17:52;6.73;;;3.80;;
19599;SDS011;9947;57.722;12.012;2023-08-01T08:20:20;4.40;;;3.50;;
19599;SDS011;9947;57.722;12.012;2023-08-01T08:22:49;6.07;;;3.40;;
19599;SDS011;9947;57.722;12.012;2023-08-01T08:27:44;8.00;;;4.07;;
19599;SDS011;9947;57.722;12.012;2023-08-01T08:30:13;6.40;;;3.33;;
19599;SDS011;9947;57.722;12.012;2023-08-01T08:32:41;6.43;;;3.40;;
19599;SDS011;9947;57.722;12.012;2023-08-01T08:35:09;5.70;;;3.33;;
19599;SDS011;9947;57.722;12.012;2023-08-01T08:37:39;6.67;;;3.50;;
19599;SDS011;9947;57.722;12.012;2023-08-01T08:42:53;4.37;;;3.33;;
19599;SDS011;9947;57.722;12.012;2023-08-01T08:45:21;5.97;;;3.33;;
19599;SDS011;9947;57.722;12.012;2023-08-01T08:47:51;5.57;;;3.10;;
19599;SDS011;9947;57.722;12.012;2023-08-01T08:50:26;4.07;;;3.07;;
19599;SDS011;9947;57.722;12.012;2023-08-01T08:52:55;5.40;;;3.33;;
19599;SDS011;9947;57.722;12.012;2023-08-01T08:55:23;5.00;;;3.57;;
19599;SDS011;9947;57.722;12.012;2023-08-01T08:58:00;6.20;;;3.13;;
19599;SDS011;9947;57.722;12.012;2023-08-01T09:00:34;6.87;;;3.43;;
19599;SDS011;9947;57.722;12.012;2023-08-01T09:05:27;6.00;;;3.70;;
19599;SDS011;9947;57.722;12.012;2023-08-01T09:08:04;6.23;;;3.80;;
19599;SDS011;9947;57.722;12.012;2023-08-01T09:10:34;6.37;;;3.80;;
19599;SDS011;9947;57.722;12.012;2023-08-01T09:15:35;6.27;;;3.67;;
19599;SDS011;9947;57.722;12.012;2023-08-01T09:20:28;5.23;;;3.53;;
19599;SDS011;9947;57.722;12.012;2023-08-01T09:22:57;5.77;;;3.53;;
19599;SDS011;9947;57.722;12.012;2023-08-01T09:25:30;5.70;;;3.10;;
19599;SDS011;9947;57.722;12.012;2023-08-01T09:27:58;5.40;;;3.50;;
19599;SDS011;9947;57.722;12.012;2023-08-01T09:30:25;5.20;;;3.17;;
19599;SDS011;9947;57.722;12.012;2023-08-01T09:32:56;5.63;;;2.93;;
19599;SDS011;9947;57.722;12.012;2023-08-01T09:35:24;5.73;;;3.00;;
19599;SDS011;9947;57.722;12.012;2023-08-01T09:37:51;7.53;;;3.33;;
19599;SDS011;9947;57.722;12.012;2023-08-01T09:40:18;4.23;;;3.40;;
19599;SDS011;9947;57.722;12.012;2023-08-01T09:42:46;6.90;;;3.23;;
19599;SDS011;9947;57.722;12.012;2023-08-01T09:45:14;6.90;;;3.30;;
19599;SDS011;9947;57.722;12.012;2023-08-01T09:47:42;4.47;;;3.10;;
19599;SDS011;9947;57.722;12.012;2023-08-01T09:50:11;5.97;;;3.30;;
19599;SDS011;9947;57.722;12.012;2023-08-01T09:52:45;5.77;;;3.23;;
19599;SDS011;9947;57.722;12.012;2023-08-01T09:55:18;6.40;;;3.07;;
19599;SDS011;9947;57.722;12.012;2023-08-01T09:57:50;6.93;;;3.10;;
19599;SDS011;9947;57.722;12.012;2023-08-01T10:00:17;5.10;;;3.33;;
19599;SDS011;9947;57.722;12.012;2023-08-01T10:02:45;5.33;;;2.97;;
19599;SDS011;9947;57.722;12.012;2023-08-01T10:05:14;3.50;;;2.93;;
19599;SDS011;9947;57.722;12.012;2023-08-01T10:07:44;3.37;;;2.43;;
19599;SDS011;9947;57.722;12.012;2023-08-01T10:10:14;4.97;;;2.50;;
19599;SDS011;9947;57.722;12.012;2023-08-01T10:12:44;4.57;;;2.40;;
19599;SDS011;9947;57.722;12.012;2023-08-01T10:15:14;5.53;;;2.60;;
19599;SDS011;9947;57.722;12.012;2023-08-01T10:17:41;3.73;;;2.50;;
19599;SDS011;9947;57.722;12.012;2023-08-01T10:20:09;4.77;;;2.60;;
19599;SDS011;9947;57.722;12.012;2023-08-01T10:22:44;4.23;;;2.40;;
19599;SDS011;9947;57.722;12.012;2023-08-01T10:25:12;9.23;;;2.67;;
19599;SDS011;9947;57.722;12.012;2023-08-01T10:27:42;5.07;;;2.53;;
19599;SDS011;9947;57.722;12.012;2023-08-01T10:30:11;5.53;;;2.53;;
19599;SDS011;9947;57.722;12.012;2023-08-01T10:32:39;5.00;;;2.40;;
19599;SDS011;9947;57.722;12.012;2023-08-01T10:35:08;5.70;;;2.40;;
19599;SDS011;9947;57.722;12.012;2023-08-01T10:37:41;4.10;;;2.20;;
19599;SDS011;9947;57.722;12.012;2023-08-01T10:40:12;5.80;;;2.30;;
19599;SDS011;9947;57.722;12.012;2023-08-01T10:42:40;4.00;;;2.43;;
19599;SDS011;9947;57.722;12.012;2023-08-01T10:47:38;4.38;;;2.50;;
19599;SDS011;9947;57.722;12.012;2023-08-01T10:50:13;6.47;;;2.30;;
19599;SDS011;9947;57.722;12.012;2023-08-01T10:52:43;3.53;;;1.88;;
19599;SDS011;9947;57.722;12.012;2023-08-01T10:55:11;4.57;;;2.17;;
19599;SDS011;9947;57.722;12.012;2023-08-01T10:57:39;3.47;;;2.15;;
19599;SDS011;9947;57.722;12.012;2023-08-01T11:00:22;5.97;;;2.00;;
19599;SDS011;9947;57.722;12.012;2023-08-01T11:02:50;8.98;;;2.08;;
19599;SDS011;9947;57.722;12.012;2023-08-01T11:05:20;4.15;;;2.10;;
19599;SDS011;9947;57.722;12.012;2023-08-01T11:07:56;4.25;;;2.17;;
19599;SDS011;9947;57.722;12.012;2023-08-01T11:10:26;6.20;;;2.33;;
19599;SDS011;9947;57.722;12.012;2023-08-01T11:12:54;4.10;;;1.95;;
19599;SDS011;9947;57.722;12.012;2023-08-01T11:15:22;3.10;;;2.17;;
19599;SDS011;9947;57.722;12.012;2023-08-01T11:17:50;4.57;;;2.03;;
19599;SDS011;9947;57.722;12.012;2023-08-01T11:20:20;3.55;;;1.90;;
19599;SDS011;9947;57.722;12.012;2023-08-01T11:22:49;6.07;;;2.28;;
19599;SDS011;9947;57.722;12.012;2023-08-01T11:25:19;4.18;;;2.08;;
19599;SDS011;9947;57.722;12.012;2023-08-01T11:27:46;3.05;;;2.00;;
19599;SDS011;9947;57.722;12.012;2023-08-01T11:30:14;5.47;;;2.05;;
19599;SDS011;9947;57.722;12.012;2023-08-01T11:32:41;7.07;;;2.03;;
19599;SDS011;9947;57.722;12.012;2023-08-01T11:35:08;4.53;;;1.88;;
19599;SDS011;9947;57.722;12.012;2023-08-01T11:37:44;4.15;;;2.15;;
19599;SDS011;9947;57.722;12.012;2023-08-01T11:40:31;4.88;;;2.00;;
19599;SDS011;9947;57.722;12.012;2023-08-01T11:45:25;3.38;;;2.03;;
19599;SDS011;9947;57.722;12.012;2023-08-01T11:47:52;4.72;;;2.10;;
19599;SDS011;9947;57.722;12.012;2023-08-01T11:50:20;4.93;;;2.03;;
19599;SDS011;9947;57.722;12.012;2023-08-01T11:52:49;3.50;;;1.93;;
19599;SDS011;9947;57.722;12.012;2023-08-01T11:55:20;2.30;;;2.00;;
19599;SDS011;9947;57.722;12.012;2023-08-01T11:57:53;5.30;;;2.33;;
19599;SDS011;9947;57.722;12.012;2023-08-01T12:00:22;4.03;;;1.77;;
19599;SDS011;9947;57.722;12.012;2023-08-01T12:02:50;6.57;;;2.23;;
19599;SDS011;9947;57.722;12.012;2023-08-01T12:05:21;4.47;;;2.30;;
19599;SDS011;9947;57.722;12.012;2023-08-01T12:07:49;6.63;;;2.00;;
19599;SDS011;9947;57.722;12.012;2023-08-01T12:10:16;3.67;;;1.60;;
19599;SDS011;9947;57.722;12.012;2023-08-01T12:12:44;3.85;;;1.73;;
19599;SDS011;9947;57.722;12.012;2023-08-01T12:15:13;4.77;;;1.90;;
19599;SDS011;9947;57.722;12.012;2023-08-01T12:17:41;2.30;;;1.83;;
19599;SDS011;9947;57.722;12.012;2023-08-01T12:20:08;2.23;;;1.70;;
19599;SDS011;9947;57.722;12.012;2023-08-01T12:22:38;4.40;;;1.90;;
19599;SDS011;9947;57.722;12.012;2023-08-01T12:27:30;4.07;;;1.70;;
19599;SDS011;9947;57.722;12.012;2023-08-01T12:29:59;2.60;;;1.90;;
19599;SDS011;9947;57.722;12.012;2023-08-01T12:32:28;3.63;;;1.75;;
19599;SDS011;9947;57.722;12.012;2023-08-01T12:34:55;4.38;;;1.90;;
19599;SDS011;9947;57.722;12.012;2023-08-01T12:37:22;3.77;;;1.53;;
19599;SDS011;9947;57.722;12.012;2023-08-01T12:39:49;4.18;;;1.92;;
19599;SDS011;9947;57.722;12.012;2023-08-01T12:42:18;6.35;;;1.90;;
19599;SDS011;9947;57.722;12.012;2023-08-01T12:44:46;2.22;;;1.90;;
19599;SDS011;9947;57.722;12.012;2023-08-01T12:47:14;5.90;;;1.80;;
19599;SDS011;9947;57.722;12.012;2023-08-01T12:49:46;2.30;;;1.80;;
19599;SDS011;9947;57.722;12.012;2023-08-01T12:52:21;3.33;;;1.42;;
19599;SDS011;9947;57.722;12.012;2023-08-01T12:54:50;2.97;;;1.77;;
19599;SDS011;9947;57.722;12.012;2023-08-01T12:57:18;4.25;;;1.80;;
19599;SDS011;9947;57.722;12.012;2023-08-01T12:59:48;4.28;;;1.70;;
19599;SDS011;9947;57.722;12.012;2023-08-01T13:02:15;3.53;;;1.85;;
19599;SDS011;9947;57.722;12.012;2023-08-01T13:04:42;3.10;;;1.60;;
19599;SDS011;9947;57.722;12.012;2023-08-01T13:09:39;4.20;;;1.63;;
19599;SDS011;9947;57.722;12.012;2023-08-01T13:12:07;3.88;;;2.03;;
19599;SDS011;9947;57.722;12.012;2023-08-01T13:14:35;3.80;;;1.75;;
19599;SDS011;9947;57.722;12.012;2023-08-01T13:17:02;3.28;;;1.77;;
19599;SDS011;9947;57.722;12.012;2023-08-01T13:19:30;2.63;;;1.95;;
19599;SDS011;9947;57.722;12.012;2023-08-01T13:21:57;5.65;;;2.05;;
19599;SDS011;9947;57.722;12.012;2023-08-01T13:24:24;3.90;;;1.80;;
19599;SDS011;9947;57.722;12.012;2023-08-01T13:26:53;1.80;;;1.70;;
19599;SDS011;9947;57.722;12.012;2023-08-01T13:29:20;1.83;;;1.73;;
19599;SDS011;9947;57.722;12.012;2023-08-01T13:31:47;3.28;;;1.70;;
19599;SDS011;9947;57.722;12.012;2023-08-01T13:34:14;4.00;;;1.75;;
19599;SDS011;9947;57.722;12.012;2023-08-01T13:36:42;1.95;;;1.75;;
19599;SDS011;9947;57.722;12.012;2023-08-01T13:39:09;2.15;;;1.75;;
19599;SDS011;9947;57.722;12.012;2023-08-01T13:41:36;4.70;;;2.00;;
19599;SDS011;9947;57.722;12.012;2023-08-01T13:46:30;4.47;;;1.98;;
19599;SDS011;9947;57.722;12.012;2023-08-01T13:48:57;5.95;;;1.92;;
19599;SDS011;9947;57.722;12.012;2023-08-01T13:51:24;2.55;;;1.90;;
19599;SDS011;9947;57.722;12.012;2023-08-01T13:53:52;5.93;;;2.20;;
19599;SDS011;9947;57.722;12.012;2023-08-01T13:56:21;3.25;;;1.80;;
19599;SDS011;9947;57.722;12.012;2023-08-01T13:58:51;3.80;;;1.92;;
19599;SDS011;9947;57.722;12.012;2023-08-01T14:01:18;3.47;;;2.00;;
19599;SDS011;9947;57.722;12.012;2023-08-01T14:03:47;3.78;;;2.20;;
19599;SDS011;9947;57.722;12.012;2023-08-01T14:06:16;4.65;;;2.20;;
19599;SDS011;9947;57.722;12.012;2023-08-01T14:08:44;3.90;;;1.75;;
19599;SDS011;9947;57.722;12.012;2023-08-01T14:11:12;3.20;;;2.03;;
19599;SDS011;9947;57.722;12.012;2023-08-01T14:13:39;5.20;;;2.30;;
19599;SDS011;9947;57.722;12.012;2023-08-01T14:18:37;2.67;;;1.80;;
19599;SDS011;9947;57.722;12.012;2023-08-01T14:21:08;3.97;;;1.95;;
19599;SDS011;9947;57.722;12.012;2023-08-01T14:23:35;6.18;;;1.83;;
19599;SDS011;9947;57.722;12.012;2023-08-01T14:28:28;2.33;;;1.85;;
19599;SDS011;9947;57.722;12.012;2023-08-01T14:30:59;3.03;;;1.90;;
19599;SDS011;9947;57.722;12.012;2023-08-01T14:33:27;2.22;;;1.90;;
19599;SDS011;9947;57.722;12.012;2023-08-01T14:35:54;4.05;;;1.98;;
19599;SDS011;9947;57.722;12.012;2023-08-01T14:38:25;2.20;;;1.98;;
19599;SDS011;9947;57.722;12.012;2023-08-01T14:40:52;2.90;;;1.77;;
19599;SDS011;9947;57.722;12.012;2023-08-01T14:43:20;3.85;;;1.98;;
19599;SDS011;9947;57.722;12.012;2023-08-01T14:45:48;4.68;;;2.17;;
19599;SDS011;9947;57.722;12.012;2023-08-01T14:48:15;4.68;;;2.30;;
19599;SDS011;9947;57.722;12.012;2023-08-01T14:50:44;3.22;;;2.00;;
19599;SDS011;9947;57.722;12.012;2023-08-01T14:53:13;3.25;;;1.85;;
19599;SDS011;9947;57.722;12.012;2023-08-01T14:55:42;2.95;;;1.70;;
19599;SDS011;9947;57.722;12.012;2023-08-01T14:58:09;1.85;;;1.50;;
19599;SDS011;9947;57.722;12.012;2023-08-01T15:00:36;2.85;;;1.60;;
19599;SDS011;9947;57.722;12.012;2023-08-01T15:05:28;5.03;;;1.83;;
19599;SDS011;9947;57.722;12.012;2023-08-01T15:07:56;4.25;;;1.70;;
19599;SDS011;9947;57.722;12.012;2023-08-01T15:10:25;2.15;;;1.42;;
19599;SDS011;9947;57.722;12.012;2023-08-01T15:12:53;2.47;;;1.52;;
19599;SDS011;9947;57.722;12.012;2023-08-01T15:15:21;1.87;;;1.77;;
19599;SDS011;9947;57.722;12.012;2023-08-01T15:17:48;2.70;;;1.80;;
19599;SDS011;9947;57.722;12.012;2023-08-01T15:22:45;3.42;;;1.85;;
19599;SDS011;9947;57.722;12.012;2023-08-01T15:25:12;2.85;;;1.65;;
19599;SDS011;9947;57.722;12.012;2023-08-01T15:27:39;3.30;;;1.83;;
19599;SDS011;9947;57.722;12.012;2023-08-01T15:30:12;2.45;;;1.50;;
19599;SDS011;9947;57.722;12.012;2023-08-01T15:32:39;2.50;;;1.50;;
19599;SDS011;9947;57.722;12.012;2023-08-01T15:35:07;2.47;;;1.60;;
19599;SDS011;9947;57.722;12.012;2023-08-01T15:37:35;2.47;;;1.40;;
19599;SDS011;9947;57.722;12.012;2023-08-01T15:42:27;5.75;;;1.70;;
19599;SDS011;9947;57.722;12.012;2023-08-01T15:44:54;4.60;;;1.67;;
19599;SDS011;9947;57.722;12.012;2023-08-01T15:47:25;3.17;;;1.50;;
19599;SDS011;9947;57.722;12.012;2023-08-01T15:49:53;1.80;;;1.30;;
19599;SDS011;9947;57.722;12.012;2023-08-01T15:52:22;1.98;;;1.40;;
19599;SDS011;9947;57.722;12.012;2023-08-01T15:54:49;5.38;;;1.67;;
19599;SDS011;9947;57.722;12.012;2023-08-01T15:57:16;2.28;;;1.50;;
19599;SDS011;9947;57.722;12.012;2023-08-01T15:59:45;2.70;;;1.40;;